sensor_id;sensor_type;location;lat;lon;timestamp;P1;durP1;ratioP1;P2;durP2;ratioP2
13967;SDS011;39536;52.198;9.920;2023-02-23T00:00:17;18.93;;;17.23;;
13967;SDS011;39536;52.198;9.920;2023-02-23T00:02:51;17.93;;;16.07;;
13967;SDS011;39536;52.198;9.920;2023-02-23T00:05:19;17.00;;;15.40;;
13967;SDS011;39536;52.198;9.920;2023-02-23T00:07:47;17.57;;;15.83;;
13967;SDS011;39536;52.198;9.920;2023-02-23T00:10:14;19.10;;;17.10;;
13967;SDS011;39536;52.198;9.920;2023-02-23T00:12:42;19.23;;;17.43;;
13967;SDS011;39536;52.198;9.920;2023-02-23T00:15:09;18.93;;;17.30;;
13967;SDS011;39536;52.198;9.920;2023-02-23T00:17:38;18.27;;;16.70;;
13967;SDS011;39536;52.198;9.920;2023-02-23T00:20:06;19.17;;;17.33;;
13967;SDS011;39536;52.198;9.920;2023-02-23T00:22:36;18.53;;;16.80;;
13967;SDS011;39536;52.198;9.920;2023-02-23T00:25:04;16.63;;;15.20;;
13967;SDS011;39536;52.198;9.920;2023-02-23T00:27:33;17.90;;;16.40;;
13967;SDS011;39536;52.198;9.920;2023-02-23T00:30:02;18.50;;;16.70;;
13967;SDS011;39536;52.198;9.920;2023-02-23T00:32:31;18.97;;;17.27;;
13967;SDS011;39536;52.198;9.920;2023-02-23T00:35:00;17.97;;;16.23;;
13967;SDS011;39536;52.198;9.920;2023-02-23T00:37:26;19.53;;;17.63;;
13967;SDS011;39536;52.198;9.920;2023-02-23T00:39:53;16.90;;;15.50;;
13967;SDS011;39536;52.198;9.920;2023-02-23T00:42:21;17.67;;;16.17;;
13967;SDS011;39536;52.198;9.920;2023-02-23T00:44:48;16.87;;;15.47;;
13967;SDS011;39536;52.198;9.920;2023-02-23T00:47:15;17.33;;;15.70;;
13967;SDS011;39536;52.198;9.920;2023-02-23T00:49:42;16.33;;;14.90;;
13967;SDS011;39536;52.198;9.920;2023-02-23T00:52:10;17.40;;;15.77;;
13967;SDS011;39536;52.198;9.920;2023-02-23T00:54:39;17.07;;;15.40;;
13967;SDS011;39536;52.198;9.920;2023-02-23T00:57:06;18.07;;;16.50;;
13967;SDS011;39536;52.198;9.920;2023-02-23T00:59:33;16.90;;;15.50;;
13967;SDS011;39536;52.198;9.920;2023-02-23T01:02:00;16.87;;;15.47;;
13967;SDS011;39536;52.198;9.920;2023-02-23T01:04:26;17.57;;;16.03;;
13967;SDS011;39536;52.198;9.920;2023-02-23T01:06:53;19.37;;;17.40;;
13967;SDS011;39536;52.198;9.920;2023-02-23T01:09:21;18.60;;;17.03;;
13967;SDS011;39536;52.198;9.920;2023-02-23T01:11:52;17.37;;;15.97;;
13967;SDS011;39536;52.198;9.920;2023-02-23T01:14:20;19.87;;;17.93;;
13967;SDS011;39536;52.198;9.920;2023-02-23T01:16:47;19.33;;;17.57;;
13967;SDS011;39536;52.198;9.920;2023-02-23T01:19:13;20.07;;;17.97;;
13967;SDS011;39536;52.198;9.920;2023-02-23T01:21:40;18.90;;;17.20;;
13967;SDS011;39536;52.198;9.920;2023-02-23T01:24:07;20.10;;;18.10;;
13967;SDS011;39536;52.198;9.920;2023-02-23T01:26:40;19.70;;;18.00;;
13967;SDS011;39536;52.198;9.920;2023-02-23T01:29:09;21.40;;;18.53;;
13967;SDS011;39536;52.198;9.920;2023-02-23T01:31:44;21.97;;;19.77;;
13967;SDS011;39536;52.198;9.920;2023-02-23T01:34:18;20.63;;;18.63;;
13967;SDS011;39536;52.198;9.920;2023-02-23T01:36:48;21.53;;;19.53;;
13967;SDS011;39536;52.198;9.920;2023-02-23T01:39:17;21.30;;;19.30;;
13967;SDS011;39536;52.198;9.920;2023-02-23T01:41:50;21.77;;;19.53;;
13967;SDS011;39536;52.198;9.920;2023-02-23T01:47:44;22.77;;;20.67;;
13967;SDS011;39536;52.198;9.920;2023-02-23T01:50:11;23.17;;;20.93;;
13967;SDS011;39536;52.198;9.920;2023-02-23T01:52:41;25.17;;;22.33;;
13967;SDS011;39536;52.198;9.920;2023-02-23T01:55:08;23.40;;;21.10;;
13967;SDS011;39536;52.198;9.920;2023-02-23T01:57:45;23.53;;;21.37;;
13967;SDS011;39536;52.198;9.920;2023-02-23T02:00:40;22.23;;;19.83;;
13967;SDS011;39536;52.198;9.920;2023-02-23T02:03:13;23.57;;;21.23;;
13967;SDS011;39536;52.198;9.920;2023-02-23T02:05:46;23.83;;;21.47;;
13967;SDS011;39536;52.198;9.920;2023-02-23T02:08:15;24.53;;;21.97;;
13967;SDS011;39536;52.198;9.920;2023-02-23T02:10:43;23.20;;;20.97;;
13967;SDS011;39536;52.198;9.920;2023-02-23T02:13:13;24.63;;;22.37;;
13967;SDS011;39536;52.198;9.920;2023-02-23T02:15:55;26.23;;;23.50;;
13967;SDS011;39536;52.198;9.920;2023-02-23T02:18:38;25.60;;;22.87;;
13967;SDS011;39536;52.198;9.920;2023-02-23T02:21:23;26.57;;;23.97;;
13967;SDS011;39536;52.198;9.920;2023-02-23T02:24:16;27.80;;;23.03;;
13967;SDS011;39536;52.198;9.920;2023-02-23T02:27:25;26.03;;;23.47;;
13967;SDS011;39536;52.198;9.920;2023-02-23T02:36:09;24.77;;;22.47;;
13967;SDS011;39536;52.198;9.920;2023-02-23T02:38:51;28.60;;;24.27;;
13967;SDS011;39536;52.198;9.920;2023-02-23T02:41:33;26.93;;;23.20;;
13967;SDS011;39536;52.198;9.920;2023-02-23T02:44:10;28.37;;;25.57;;
13967;SDS011;39536;52.198;9.920;2023-02-23T02:46:45;27.07;;;24.23;;
13967;SDS011;39536;52.198;9.920;2023-02-23T02:49:24;27.57;;;24.83;;
13967;SDS011;39536;52.198;9.920;2023-02-23T02:52:02;30.90;;;25.17;;
13967;SDS011;39536;52.198;9.920;2023-02-23T02:54:43;27.80;;;23.77;;
13967;SDS011;39536;52.198;9.920;2023-02-23T02:57:17;29.47;;;25.07;;
13967;SDS011;39536;52.198;9.920;2023-02-23T02:59:48;27.20;;;24.33;;
13967;SDS011;39536;52.198;9.920;2023-02-23T03:02:34;26.90;;;24.10;;
13967;SDS011;39536;52.198;9.920;2023-02-23T03:05:21;28.60;;;24.67;;
13967;SDS011;39536;52.198;9.920;2023-02-23T03:08:09;28.27;;;25.10;;
13967;SDS011;39536;52.198;9.920;2023-02-23T03:11:02;31.83;;;27.07;;
13967;SDS011;39536;52.198;9.920;2023-02-23T03:13:51;28.53;;;25.53;;
13967;SDS011;39536;52.198;9.920;2023-02-23T03:16:48;27.97;;;25.23;;
13967;SDS011;39536;52.198;9.920;2023-02-23T03:19:40;31.93;;;27.27;;
13967;SDS011;39536;52.198;9.920;2023-02-23T03:22:37;29.97;;;26.07;;
13967;SDS011;39536;52.198;9.920;2023-02-23T03:25:25;32.73;;;27.50;;
13967;SDS011;39536;52.198;9.920;2023-02-23T03:28:16;33.47;;;27.23;;
13967;SDS011;39536;52.198;9.920;2023-02-23T03:31:05;34.70;;;25.90;;
13967;SDS011;39536;52.198;9.920;2023-02-23T03:33:58;32.63;;;27.03;;
13967;SDS011;39536;52.198;9.920;2023-02-23T03:36:53;30.20;;;26.63;;
13967;SDS011;39536;52.198;9.920;2023-02-23T03:39:45;34.37;;;27.80;;
13967;SDS011;39536;52.198;9.920;2023-02-23T03:42:34;29.47;;;26.10;;
13967;SDS011;39536;52.198;9.920;2023-02-23T03:45:22;32.17;;;27.13;;
13967;SDS011;39536;52.198;9.920;2023-02-23T03:48:09;30.10;;;26.43;;
13967;SDS011;39536;52.198;9.920;2023-02-23T03:50:57;29.47;;;25.30;;
13967;SDS011;39536;52.198;9.920;2023-02-23T03:53:46;31.03;;;26.30;;
13967;SDS011;39536;52.198;9.920;2023-02-23T03:56:35;32.97;;;26.87;;
13967;SDS011;39536;52.198;9.920;2023-02-23T03:59:25;33.00;;;27.67;;
13967;SDS011;39536;52.198;9.920;2023-02-23T04:02:16;32.63;;;29.10;;
13967;SDS011;39536;52.198;9.920;2023-02-23T04:05:04;36.47;;;29.00;;
13967;SDS011;39536;52.198;9.920;2023-02-23T04:07:52;32.20;;;28.70;;
13967;SDS011;39536;52.198;9.920;2023-02-23T04:10:40;35.83;;;30.17;;
13967;SDS011;39536;52.198;9.920;2023-02-23T04:13:32;33.03;;;29.53;;
13967;SDS011;39536;52.198;9.920;2023-02-23T04:16:02;35.00;;;30.13;;
13967;SDS011;39536;52.198;9.920;2023-02-23T04:18:31;37.53;;;30.00;;
13967;SDS011;39536;52.198;9.920;2023-02-23T04:20:59;36.60;;;31.63;;
13967;SDS011;39536;52.198;9.920;2023-02-23T04:23:26;34.67;;;30.93;;
13967;SDS011;39536;52.198;9.920;2023-02-23T04:25:54;46.30;;;31.90;;
13967;SDS011;39536;52.198;9.920;2023-02-23T04:28:21;34.80;;;30.20;;
13967;SDS011;39536;52.198;9.920;2023-02-23T04:30:49;38.10;;;31.10;;
13967;SDS011;39536;52.198;9.920;2023-02-23T04:33:17;37.50;;;31.03;;
13967;SDS011;39536;52.198;9.920;2023-02-23T04:35:45;35.40;;;31.17;;
13967;SDS011;39536;52.198;9.920;2023-02-23T04:38:12;36.47;;;30.63;;
13967;SDS011;39536;52.198;9.920;2023-02-23T04:40:38;40.47;;;30.63;;
13967;SDS011;39536;52.198;9.920;2023-02-23T04:43:05;42.17;;;31.47;;
13967;SDS011;39536;52.198;9.920;2023-02-23T04:45:31;37.23;;;30.97;;
13967;SDS011;39536;52.198;9.920;2023-02-23T04:47:58;38.87;;;31.80;;
13967;SDS011;39536;52.198;9.920;2023-02-23T04:50:25;34.00;;;30.43;;
13967;SDS011;39536;52.198;9.920;2023-02-23T04:52:53;40.37;;;31.47;;
13967;SDS011;39536;52.198;9.920;2023-02-23T04:55:20;35.57;;;31.40;;
13967;SDS011;39536;52.198;9.920;2023-02-23T04:57:47;40.73;;;30.97;;
13967;SDS011;39536;52.198;9.920;2023-02-23T05:00:15;35.57;;;29.83;;
13967;SDS011;39536;52.198;9.920;2023-02-23T05:02:43;34.07;;;30.13;;
13967;SDS011;39536;52.198;9.920;2023-02-23T05:05:10;36.53;;;30.00;;
13967;SDS011;39536;52.198;9.920;2023-02-23T05:07:37;34.97;;;30.30;;
13967;SDS011;39536;52.198;9.920;2023-02-23T05:10:06;31.80;;;28.40;;
13967;SDS011;39536;52.198;9.920;2023-02-23T05:12:33;38.13;;;28.97;;
13967;SDS011;39536;52.198;9.920;2023-02-23T05:14:59;40.53;;;30.80;;
13967;SDS011;39536;52.198;9.920;2023-02-23T05:17:26;34.27;;;30.70;;
13967;SDS011;39536;52.198;9.920;2023-02-23T05:19:52;36.13;;;31.63;;
13967;SDS011;39536;52.198;9.920;2023-02-23T05:22:20;39.57;;;32.77;;
13967;SDS011;39536;52.198;9.920;2023-02-23T05:24:46;42.73;;;32.83;;
13967;SDS011;39536;52.198;9.920;2023-02-23T05:27:15;38.03;;;31.63;;
13967;SDS011;39536;52.198;9.920;2023-02-23T05:29:41;39.30;;;31.40;;
13967;SDS011;39536;52.198;9.920;2023-02-23T05:32:08;36.07;;;30.43;;
13967;SDS011;39536;52.198;9.920;2023-02-23T05:34:35;34.77;;;30.83;;
13967;SDS011;39536;52.198;9.920;2023-02-23T05:37:03;41.63;;;31.87;;
13967;SDS011;39536;52.198;9.920;2023-02-23T05:39:30;44.57;;;32.23;;
13967;SDS011;39536;52.198;9.920;2023-02-23T05:41:56;36.23;;;30.53;;
13967;SDS011;39536;52.198;9.920;2023-02-23T05:44:24;37.80;;;31.73;;
13967;SDS011;39536;52.198;9.920;2023-02-23T05:46:51;38.07;;;31.07;;
13967;SDS011;39536;52.198;9.920;2023-02-23T05:49:18;40.43;;;32.53;;
13967;SDS011;39536;52.198;9.920;2023-02-23T05:51:44;39.17;;;30.53;;
13967;SDS011;39536;52.198;9.920;2023-02-23T05:54:11;43.07;;;32.40;;
13967;SDS011;39536;52.198;9.920;2023-02-23T05:56:38;39.33;;;31.60;;
13967;SDS011;39536;52.198;9.920;2023-02-23T05:59:04;36.73;;;31.70;;
13967;SDS011;39536;52.198;9.920;2023-02-23T06:01:32;39.83;;;32.57;;
13967;SDS011;39536;52.198;9.920;2023-02-23T06:03:59;41.23;;;32.33;;
13967;SDS011;39536;52.198;9.920;2023-02-23T06:06:26;39.57;;;30.67;;
13967;SDS011;39536;52.198;9.920;2023-02-23T06:08:52;41.37;;;33.47;;
13967;SDS011;39536;52.198;9.920;2023-02-23T06:11:19;41.77;;;34.27;;
13967;SDS011;39536;52.198;9.920;2023-02-23T06:13:46;44.97;;;34.57;;
13967;SDS011;39536;52.198;9.920;2023-02-23T06:16:13;40.17;;;33.90;;
13967;SDS011;39536;52.198;9.920;2023-02-23T06:18:41;40.90;;;33.57;;
13967;SDS011;39536;52.198;9.920;2023-02-23T06:21:08;43.53;;;34.53;;
13967;SDS011;39536;52.198;9.920;2023-02-23T06:23:35;41.60;;;34.87;;
13967;SDS011;39536;52.198;9.920;2023-02-23T06:26:02;40.23;;;34.53;;
13967;SDS011;39536;52.198;9.920;2023-02-23T06:28:28;55.17;;;41.93;;
13967;SDS011;39536;52.198;9.920;2023-02-23T06:30:55;54.80;;;39.73;;
13967;SDS011;39536;52.198;9.920;2023-02-23T06:33:22;54.83;;;41.50;;
13967;SDS011;39536;52.198;9.920;2023-02-23T06:35:50;55.27;;;41.03;;
13967;SDS011;39536;52.198;9.920;2023-02-23T06:38:18;50.13;;;38.33;;
13967;SDS011;39536;52.198;9.920;2023-02-23T06:40:45;58.00;;;40.90;;
13967;SDS011;39536;52.198;9.920;2023-02-23T06:43:12;52.47;;;40.80;;
13967;SDS011;39536;52.198;9.920;2023-02-23T06:45:39;54.77;;;40.40;;
13967;SDS011;39536;52.198;9.920;2023-02-23T06:48:05;58.40;;;42.83;;
13967;SDS011;39536;52.198;9.920;2023-02-23T06:50:32;56.17;;;40.23;;
13967;SDS011;39536;52.198;9.920;2023-02-23T06:53:00;52.27;;;39.83;;
13967;SDS011;39536;52.198;9.920;2023-02-23T06:55:27;50.30;;;38.73;;
13967;SDS011;39536;52.198;9.920;2023-02-23T06:57:53;54.37;;;39.90;;
13967;SDS011;39536;52.198;9.920;2023-02-23T07:00:20;48.73;;;38.40;;
13967;SDS011;39536;52.198;9.920;2023-02-23T07:02:47;65.37;;;45.27;;
13967;SDS011;39536;52.198;9.920;2023-02-23T07:05:14;62.27;;;46.00;;
13967;SDS011;39536;52.198;9.920;2023-02-23T07:07:41;67.47;;;46.37;;
13967;SDS011;39536;52.198;9.920;2023-02-23T07:10:10;63.03;;;46.00;;
13967;SDS011;39536;52.198;9.920;2023-02-23T07:12:37;67.37;;;47.17;;
13967;SDS011;39536;52.198;9.920;2023-02-23T07:15:03;64.10;;;43.60;;
13967;SDS011;39536;52.198;9.920;2023-02-23T07:17:31;74.13;;;48.87;;
13967;SDS011;39536;52.198;9.920;2023-02-23T07:19:57;67.63;;;49.33;;
13967;SDS011;39536;52.198;9.920;2023-02-23T07:22:24;77.97;;;53.03;;
13967;SDS011;39536;52.198;9.920;2023-02-23T07:24:53;76.23;;;51.77;;
13967;SDS011;39536;52.198;9.920;2023-02-23T07:27:21;76.70;;;51.83;;
13967;SDS011;39536;52.198;9.920;2023-02-23T07:29:48;82.33;;;53.23;;
13967;SDS011;39536;52.198;9.920;2023-02-23T07:32:14;77.97;;;52.70;;
13967;SDS011;39536;52.198;9.920;2023-02-23T07:34:41;72.87;;;52.00;;
13967;SDS011;39536;52.198;9.920;2023-02-23T07:37:08;81.17;;;51.63;;
13967;SDS011;39536;52.198;9.920;2023-02-23T07:39:34;78.27;;;51.70;;
13967;SDS011;39536;52.198;9.920;2023-02-23T07:42:01;84.77;;;52.93;;
13967;SDS011;39536;52.198;9.920;2023-02-23T07:44:30;77.80;;;52.23;;
13967;SDS011;39536;52.198;9.920;2023-02-23T07:46:56;85.90;;;50.17;;
13967;SDS011;39536;52.198;9.920;2023-02-23T07:49:23;73.30;;;52.40;;
13967;SDS011;39536;52.198;9.920;2023-02-23T07:51:50;75.67;;;51.50;;
13967;SDS011;39536;52.198;9.920;2023-02-23T07:54:17;75.80;;;50.70;;
13967;SDS011;39536;52.198;9.920;2023-02-23T07:56:43;78.47;;;53.00;;
13967;SDS011;39536;52.198;9.920;2023-02-23T07:59:10;74.50;;;53.70;;
13967;SDS011;39536;52.198;9.920;2023-02-23T08:01:38;77.50;;;51.63;;
13967;SDS011;39536;52.198;9.920;2023-02-23T08:04:04;73.33;;;52.87;;
13967;SDS011;39536;52.198;9.920;2023-02-23T08:06:31;69.80;;;50.27;;
13967;SDS011;39536;52.198;9.920;2023-02-23T08:08:58;81.87;;;51.87;;
13967;SDS011;39536;52.198;9.920;2023-02-23T08:11:25;72.73;;;53.27;;
13967;SDS011;39536;52.198;9.920;2023-02-23T08:13:53;74.50;;;52.63;;
13967;SDS011;39536;52.198;9.920;2023-02-23T08:16:23;83.80;;;52.37;;
13967;SDS011;39536;52.198;9.920;2023-02-23T08:18:51;83.03;;;54.03;;
13967;SDS011;39536;52.198;9.920;2023-02-23T08:21:18;81.50;;;55.80;;
13967;SDS011;39536;52.198;9.920;2023-02-23T08:23:45;87.57;;;55.67;;
13967;SDS011;39536;52.198;9.920;2023-02-23T08:26:11;79.27;;;54.27;;
13967;SDS011;39536;52.198;9.920;2023-02-23T08:28:38;87.73;;;56.73;;
13967;SDS011;39536;52.198;9.920;2023-02-23T08:31:07;85.73;;;57.30;;
13967;SDS011;39536;52.198;9.920;2023-02-23T08:33:34;82.17;;;55.60;;
13967;SDS011;39536;52.198;9.920;2023-02-23T08:36:04;83.20;;;55.60;;
13967;SDS011;39536;52.198;9.920;2023-02-23T08:38:31;83.20;;;57.27;;
13967;SDS011;39536;52.198;9.920;2023-02-23T08:41:00;84.23;;;55.87;;
13967;SDS011;39536;52.198;9.920;2023-02-23T08:43:27;76.93;;;53.27;;
13967;SDS011;39536;52.198;9.920;2023-02-23T08:45:54;83.03;;;55.67;;
13967;SDS011;39536;52.198;9.920;2023-02-23T08:48:20;94.47;;;57.97;;
13967;SDS011;39536;52.198;9.920;2023-02-23T08:50:48;87.03;;;56.13;;
13967;SDS011;39536;52.198;9.920;2023-02-23T08:53:16;83.63;;;56.40;;
13967;SDS011;39536;52.198;9.920;2023-02-23T08:55:43;82.70;;;56.33;;
13967;SDS011;39536;52.198;9.920;2023-02-23T08:58:09;87.00;;;59.37;;
13967;SDS011;39536;52.198;9.920;2023-02-23T09:00:36;85.70;;;57.77;;
13967;SDS011;39536;52.198;9.920;2023-02-23T09:03:04;92.43;;;61.67;;
13967;SDS011;39536;52.198;9.920;2023-02-23T09:05:31;90.33;;;59.43;;
13967;SDS011;39536;52.198;9.920;2023-02-23T09:07:58;91.10;;;60.57;;
13967;SDS011;39536;52.198;9.920;2023-02-23T09:10:26;87.93;;;58.73;;
13967;SDS011;39536;52.198;9.920;2023-02-23T09:12:53;84.57;;;57.53;;
13967;SDS011;39536;52.198;9.920;2023-02-23T09:15:20;88.93;;;58.23;;
13967;SDS011;39536;52.198;9.920;2023-02-23T09:17:47;84.87;;;58.17;;
13967;SDS011;39536;52.198;9.920;2023-02-23T09:20:14;89.17;;;56.80;;
13967;SDS011;39536;52.198;9.920;2023-02-23T09:22:42;87.57;;;58.33;;
13967;SDS011;39536;52.198;9.920;2023-02-23T09:25:12;86.70;;;58.93;;
13967;SDS011;39536;52.198;9.920;2023-02-23T09:27:44;91.03;;;59.27;;
13967;SDS011;39536;52.198;9.920;2023-02-23T09:30:11;87.00;;;57.87;;
13967;SDS011;39536;52.198;9.920;2023-02-23T09:32:42;89.30;;;58.57;;
13967;SDS011;39536;52.198;9.920;2023-02-23T09:35:09;89.40;;;60.20;;
13967;SDS011;39536;52.198;9.920;2023-02-23T09:37:36;90.10;;;58.87;;
13967;SDS011;39536;52.198;9.920;2023-02-23T09:40:03;93.93;;;60.70;;
13967;SDS011;39536;52.198;9.920;2023-02-23T09:42:33;92.83;;;60.83;;
13967;SDS011;39536;52.198;9.920;2023-02-23T09:45:12;95.67;;;62.13;;
13967;SDS011;39536;52.198;9.920;2023-02-23T09:47:46;102.40;;;65.73;;
13967;SDS011;39536;52.198;9.920;2023-02-23T09:50:30;100.33;;;63.53;;
13967;SDS011;39536;52.198;9.920;2023-02-23T09:53:00;95.30;;;61.40;;
13967;SDS011;39536;52.198;9.920;2023-02-23T09:55:30;103.73;;;63.13;;
13967;SDS011;39536;52.198;9.920;2023-02-23T09:58:01;111.50;;;65.90;;
13967;SDS011;39536;52.198;9.920;2023-02-23T10:00:33;99.80;;;62.20;;
13967;SDS011;39536;52.198;9.920;2023-02-23T10:03:08;92.50;;;59.87;;
13967;SDS011;39536;52.198;9.920;2023-02-23T10:05:42;94.17;;;61.03;;
13967;SDS011;39536;52.198;9.920;2023-02-23T10:08:17;96.50;;;63.00;;
13967;SDS011;39536;52.198;9.920;2023-02-23T10:10:50;99.57;;;62.53;;
13967;SDS011;39536;52.198;9.920;2023-02-23T10:13:27;92.67;;;60.03;;
13967;SDS011;39536;52.198;9.920;2023-02-23T10:16:05;101.03;;;63.10;;
13967;SDS011;39536;52.198;9.920;2023-02-23T10:18:39;96.93;;;60.97;;
13967;SDS011;39536;52.198;9.920;2023-02-23T10:21:14;91.40;;;60.33;;
13967;SDS011;39536;52.198;9.920;2023-02-23T10:23:47;99.13;;;59.97;;
13967;SDS011;39536;52.198;9.920;2023-02-23T10:26:17;104.40;;;63.53;;
13967;SDS011;39536;52.198;9.920;2023-02-23T10:28:47;99.90;;;62.63;;
13967;SDS011;39536;52.198;9.920;2023-02-23T10:31:24;96.33;;;63.47;;
13967;SDS011;39536;52.198;9.920;2023-02-23T10:33:56;100.63;;;62.17;;
13967;SDS011;39536;52.198;9.920;2023-02-23T10:36:28;184.10;;;118.70;;
13967;SDS011;39536;52.198;9.920;2023-02-23T10:39:00;97.37;;;64.23;;
13967;SDS011;39536;52.198;9.920;2023-02-23T10:41:31;102.50;;;67.80;;
13967;SDS011;39536;52.198;9.920;2023-02-23T10:43:58;102.93;;;64.00;;
13967;SDS011;39536;52.198;9.920;2023-02-23T10:46:28;95.87;;;62.07;;
13967;SDS011;39536;52.198;9.920;2023-02-23T10:49:02;96.20;;;60.17;;
13967;SDS011;39536;52.198;9.920;2023-02-23T10:51:33;103.00;;;60.77;;
13967;SDS011;39536;52.198;9.920;2023-02-23T10:57:18;98.60;;;58.63;;
13967;SDS011;39536;52.198;9.920;2023-02-23T11:00:10;87.73;;;56.57;;
13967;SDS011;39536;52.198;9.920;2023-02-23T11:02:56;91.90;;;57.87;;
13967;SDS011;39536;52.198;9.920;2023-02-23T11:05:26;90.57;;;58.00;;
13967;SDS011;39536;52.198;9.920;2023-02-23T11:08:08;92.60;;;57.40;;
13967;SDS011;39536;52.198;9.920;2023-02-23T11:13:36;84.03;;;54.00;;
13967;SDS011;39536;52.198;9.920;2023-02-23T11:16:06;80.80;;;53.57;;
13967;SDS011;39536;52.198;9.920;2023-02-23T11:18:35;88.47;;;54.00;;
13967;SDS011;39536;52.198;9.920;2023-02-23T11:21:08;85.47;;;53.20;;
13967;SDS011;39536;52.198;9.920;2023-02-23T11:23:36;89.17;;;54.17;;
13967;SDS011;39536;52.198;9.920;2023-02-23T11:26:15;79.80;;;51.37;;
13967;SDS011;39536;52.198;9.920;2023-02-23T11:28:51;80.27;;;49.70;;
13967;SDS011;39536;52.198;9.920;2023-02-23T11:31:20;81.47;;;51.67;;
13967;SDS011;39536;52.198;9.920;2023-02-23T11:33:52;76.23;;;51.27;;
13967;SDS011;39536;52.198;9.920;2023-02-23T11:36:25;77.43;;;49.57;;
13967;SDS011;39536;52.198;9.920;2023-02-23T11:39:00;81.10;;;50.93;;
13967;SDS011;39536;52.198;9.920;2023-02-23T11:41:32;68.87;;;46.90;;
13967;SDS011;39536;52.198;9.920;2023-02-23T11:44:02;74.17;;;49.03;;
13967;SDS011;39536;52.198;9.920;2023-02-23T11:46:30;70.73;;;46.97;;
13967;SDS011;39536;52.198;9.920;2023-02-23T11:49:01;67.07;;;45.30;;
13967;SDS011;39536;52.198;9.920;2023-02-23T11:51:31;68.97;;;45.33;;
13967;SDS011;39536;52.198;9.920;2023-02-23T11:54:00;77.53;;;51.33;;
13967;SDS011;39536;52.198;9.920;2023-02-23T11:56:29;69.20;;;47.63;;
13967;SDS011;39536;52.198;9.920;2023-02-23T11:59:00;74.77;;;47.87;;
13967;SDS011;39536;52.198;9.920;2023-02-23T12:01:36;66.23;;;45.47;;
13967;SDS011;39536;52.198;9.920;2023-02-23T12:04:08;61.90;;;44.37;;
13967;SDS011;39536;52.198;9.920;2023-02-23T12:06:49;67.27;;;45.07;;
13967;SDS011;39536;52.198;9.920;2023-02-23T12:09:18;66.70;;;44.33;;
13967;SDS011;39536;52.198;9.920;2023-02-23T12:11:51;66.93;;;43.93;;
13967;SDS011;39536;52.198;9.920;2023-02-23T12:14:26;58.27;;;41.63;;
13967;SDS011;39536;52.198;9.920;2023-02-23T12:16:59;62.27;;;43.53;;
13967;SDS011;39536;52.198;9.920;2023-02-23T12:19:30;57.13;;;39.53;;
13967;SDS011;39536;52.198;9.920;2023-02-23T12:22:03;54.83;;;38.03;;
13967;SDS011;39536;52.198;9.920;2023-02-23T12:24:42;47.13;;;36.77;;
13967;SDS011;39536;52.198;9.920;2023-02-23T12:27:11;52.77;;;37.97;;
13967;SDS011;39536;52.198;9.920;2023-02-23T12:29:46;54.80;;;39.00;;
13967;SDS011;39536;52.198;9.920;2023-02-23T12:32:25;50.77;;;37.40;;
13967;SDS011;39536;52.198;9.920;2023-02-23T12:34:59;56.23;;;40.10;;
13967;SDS011;39536;52.198;9.920;2023-02-23T12:37:33;55.10;;;40.50;;
13967;SDS011;39536;52.198;9.920;2023-02-23T12:40:13;52.33;;;37.43;;
13967;SDS011;39536;52.198;9.920;2023-02-23T12:42:43;45.93;;;34.57;;
13967;SDS011;39536;52.198;9.920;2023-02-23T12:45:19;48.63;;;35.20;;
13967;SDS011;39536;52.198;9.920;2023-02-23T12:47:51;59.07;;;39.37;;
13967;SDS011;39536;52.198;9.920;2023-02-23T12:50:25;52.17;;;38.53;;
13967;SDS011;39536;52.198;9.920;2023-02-23T12:52:55;49.80;;;37.47;;
13967;SDS011;39536;52.198;9.920;2023-02-23T12:55:28;50.33;;;35.27;;
13967;SDS011;39536;52.198;9.920;2023-02-23T12:58:05;45.37;;;35.23;;
13967;SDS011;39536;52.198;9.920;2023-02-23T13:00:52;49.53;;;36.50;;
13967;SDS011;39536;52.198;9.920;2023-02-23T13:03:30;49.13;;;34.70;;
13967;SDS011;39536;52.198;9.920;2023-02-23T13:06:06;47.47;;;33.27;;
13967;SDS011;39536;52.198;9.920;2023-02-23T13:08:42;46.90;;;35.20;;
13967;SDS011;39536;52.198;9.920;2023-02-23T13:11:21;45.17;;;33.17;;
13967;SDS011;39536;52.198;9.920;2023-02-23T13:14:02;42.13;;;31.90;;
13967;SDS011;39536;52.198;9.920;2023-02-23T13:16:44;43.90;;;32.00;;
13967;SDS011;39536;52.198;9.920;2023-02-23T13:19:23;40.40;;;30.87;;
13967;SDS011;39536;52.198;9.920;2023-02-23T13:22:06;37.60;;;30.73;;
13967;SDS011;39536;52.198;9.920;2023-02-23T13:24:54;34.53;;;29.43;;
13967;SDS011;39536;52.198;9.920;2023-02-23T13:27:42;36.17;;;28.83;;
13967;SDS011;39536;52.198;9.920;2023-02-23T13:30:16;38.50;;;30.70;;
13967;SDS011;39536;52.198;9.920;2023-02-23T13:32:48;43.53;;;30.60;;
13967;SDS011;39536;52.198;9.920;2023-02-23T13:35:16;36.20;;;29.53;;
13967;SDS011;39536;52.198;9.920;2023-02-23T13:37:45;41.33;;;29.87;;
13967;SDS011;39536;52.198;9.920;2023-02-23T13:40:18;45.80;;;32.13;;
13967;SDS011;39536;52.198;9.920;2023-02-23T13:42:54;46.50;;;33.87;;
13967;SDS011;39536;52.198;9.920;2023-02-23T13:45:35;51.27;;;34.10;;
13967;SDS011;39536;52.198;9.920;2023-02-23T13:48:15;51.37;;;34.23;;
13967;SDS011;39536;52.198;9.920;2023-02-23T13:50:50;58.50;;;37.90;;
13967;SDS011;39536;52.198;9.920;2023-02-23T13:53:32;50.20;;;34.47;;
13967;SDS011;39536;52.198;9.920;2023-02-23T13:56:04;54.37;;;36.20;;
13967;SDS011;39536;52.198;9.920;2023-02-23T13:58:33;58.50;;;35.77;;
13967;SDS011;39536;52.198;9.920;2023-02-23T14:01:08;54.27;;;35.00;;
13967;SDS011;39536;52.198;9.920;2023-02-23T14:03:43;43.07;;;28.53;;
13967;SDS011;39536;52.198;9.920;2023-02-23T14:06:13;45.97;;;29.10;;
13967;SDS011;39536;52.198;9.920;2023-02-23T14:08:43;38.70;;;25.20;;
13967;SDS011;39536;52.198;9.920;2023-02-23T14:11:29;38.43;;;24.83;;
13967;SDS011;39536;52.198;9.920;2023-02-23T14:14:03;38.53;;;24.43;;
13967;SDS011;39536;52.198;9.920;2023-02-23T14:16:30;31.40;;;21.10;;
13967;SDS011;39536;52.198;9.920;2023-02-23T14:19:06;30.43;;;21.73;;
13967;SDS011;39536;52.198;9.920;2023-02-23T14:21:36;27.60;;;17.20;;
13967;SDS011;39536;52.198;9.920;2023-02-23T14:24:13;26.70;;;19.87;;
13967;SDS011;39536;52.198;9.920;2023-02-23T14:26:43;33.00;;;20.73;;
13967;SDS011;39536;52.198;9.920;2023-02-23T14:29:22;30.07;;;19.30;;
13967;SDS011;39536;52.198;9.920;2023-02-23T14:32:03;32.43;;;21.53;;
13967;SDS011;39536;52.198;9.920;2023-02-23T14:34:55;39.30;;;22.67;;
13967;SDS011;39536;52.198;9.920;2023-02-23T14:37:24;35.40;;;21.93;;
13967;SDS011;39536;52.198;9.920;2023-02-23T14:39:55;41.10;;;24.53;;
13967;SDS011;39536;52.198;9.920;2023-02-23T14:42:29;42.93;;;24.23;;
13967;SDS011;39536;52.198;9.920;2023-02-23T14:44:57;42.27;;;23.87;;
13967;SDS011;39536;52.198;9.920;2023-02-23T14:47:30;40.33;;;23.10;;
13967;SDS011;39536;52.198;9.920;2023-02-23T14:50:10;39.30;;;23.47;;
13967;SDS011;39536;52.198;9.920;2023-02-23T14:52:43;42.90;;;24.53;;
13967;SDS011;39536;52.198;9.920;2023-02-23T14:55:15;45.10;;;24.27;;
13967;SDS011;39536;52.198;9.920;2023-02-23T14:57:46;46.03;;;24.87;;
13967;SDS011;39536;52.198;9.920;2023-02-23T15:00:17;39.33;;;23.83;;
13967;SDS011;39536;52.198;9.920;2023-02-23T15:02:54;46.63;;;25.17;;
13967;SDS011;39536;52.198;9.920;2023-02-23T15:05:25;55.53;;;27.53;;